CEB914 RPVE-RPLC
Flight info
| Callsign | CEB914 |
|---|---|
| Flight time | 0h 44m |
| Altitude | 30000 |
| Route | MINOR8A MINOR DCT CONDE W11 MIA W16 OLIVA OLIVA3P |
| Aircraft | A320/M-SDE3FGHIRWY/LB1 |
Departure
| Time | 2026-05-08 07:07 |
|---|---|
| Airport | Godofredo P. Ramos Airport (RPVE) |
Arrival
| Time | 2026-05-08 07:51 |
|---|---|
| Airport | Clark International Airport / Clark Air Base (RPLC) |
| Time | Latitude | Longitude | Altitude | Speed | Heading |
|---|---|---|---|---|---|
| 2026-05-08 06:54 | 11.92673 | 121.96371 | 32 ft | 0 kts | 153° |
| 2026-05-08 06:58 | 11.92686 | 121.96365 | 33 ft | 4 kts | 163° |
| 2026-05-08 06:59 | 11.92711 | 121.96363 | 27 ft | 4 kts | 206° |
| 2026-05-08 06:59 | 11.92726 | 121.96377 | 30 ft | 1 kts | 243° |
| 2026-05-08 06:59 | 11.92728 | 121.96381 | 30 ft | 0 kts | 243° |
| 2026-05-08 07:01 | 11.92727 | 121.96380 | 23 ft | 0 kts | 243° |
| 2026-05-08 07:01 | 11.92714 | 121.96354 | 28 ft | 12 kts | 243° |
| 2026-05-08 07:01 | 11.92681 | 121.96288 | 29 ft | 10 kts | 243° |
| 2026-05-08 07:02 | 11.92652 | 121.96231 | 26 ft | 8 kts | 243° |
| 2026-05-08 07:02 | 11.92676 | 121.96186 | 26 ft | 13 kts | 328° |
| 2026-05-08 07:02 | 11.92782 | 121.96131 | 30 ft | 18 kts | 331° |
| 2026-05-08 07:02 | 11.92777 | 121.96035 | 27 ft | 14 kts | 242° |
| 2026-05-08 07:03 | 11.92734 | 121.95952 | 27 ft | 13 kts | 242° |
| 2026-05-08 07:03 | 11.92695 | 121.95874 | 26 ft | 12 kts | 243° |
| 2026-05-08 07:03 | 11.92661 | 121.95806 | 26 ft | 10 kts | 243° |
| 2026-05-08 07:03 | 11.92631 | 121.95746 | 27 ft | 9 kts | 243° |
| 2026-05-08 07:04 | 11.92606 | 121.95695 | 30 ft | 8 kts | 243° |
| 2026-05-08 07:04 | 11.92559 | 121.95601 | 25 ft | 19 kts | 242° |
| 2026-05-08 07:04 | 11.92501 | 121.95488 | 26 ft | 17 kts | 244° |
| 2026-05-08 07:04 | 11.92450 | 121.95385 | 25 ft | 15 kts | 242° |
| 2026-05-08 07:05 | 11.92404 | 121.95294 | 23 ft | 14 kts | 243° |
| 2026-05-08 07:05 | 11.92362 | 121.95209 | 24 ft | 13 kts | 243° |
| 2026-05-08 07:05 | 11.92325 | 121.95136 | 25 ft | 12 kts | 243° |
| 2026-05-08 07:05 | 11.92263 | 121.95055 | 26 ft | 15 kts | 222° |
| 2026-05-08 07:06 | 11.92257 | 121.95016 | 27 ft | 4 kts | 24° |
| 2026-05-08 07:06 | 11.92342 | 121.95172 | 25 ft | 64 kts | 63° |
| 2026-05-08 07:06 | 11.92670 | 121.95823 | 31 ft | 138 kts | 63° |
| 2026-05-08 07:06 | 11.93125 | 121.96760 | 604 ft | 150 kts | 65° |
| 2026-05-08 07:07 | 11.93596 | 121.97702 | 1441 ft | 147 kts | 63° |
| 2026-05-08 07:07 | 11.94062 | 121.98623 | 2069 ft | 146 kts | 64° |
| 2026-05-08 07:07 | 11.94557 | 121.99604 | 2337 ft | 167 kts | 63° |
| 2026-05-08 07:07 | 11.95125 | 122.00730 | 2572 ft | 189 kts | 62° |
| 2026-05-08 07:08 | 11.95767 | 122.02002 | 2794 ft | 214 kts | 61° |
| 2026-05-08 07:08 | 11.96777 | 122.03156 | 3294 ft | 229 kts | 34° |
| 2026-05-08 07:08 | 11.98263 | 122.03964 | 3669 ft | 252 kts | 29° |
| 2026-05-08 07:08 | 11.99841 | 122.04761 | 4379 ft | 260 kts | 28° |
| 2026-05-08 07:09 | 12.01499 | 122.05585 | 5171 ft | 263 kts | 28° |
| 2026-05-08 07:09 | 12.03139 | 122.06397 | 5935 ft | 268 kts | 28° |
| 2026-05-08 07:09 | 12.04830 | 122.07241 | 6678 ft | 272 kts | 28° |
| 2026-05-08 07:09 | 12.06535 | 122.08100 | 7418 ft | 275 kts | 29° |
| 2026-05-08 07:10 | 12.08258 | 122.08968 | 8189 ft | 277 kts | 28° |
| 2026-05-08 07:10 | 12.09995 | 122.09842 | 8970 ft | 279 kts | 28° |
| 2026-05-08 07:10 | 12.11741 | 122.10723 | 9738 ft | 280 kts | 28° |
| 2026-05-08 07:10 | 12.13508 | 122.11619 | 10243 ft | 292 kts | 28° |
| 2026-05-08 07:11 | 12.15395 | 122.12578 | 10398 ft | 314 kts | 28° |
| 2026-05-08 07:11 | 12.17394 | 122.13593 | 10811 ft | 325 kts | 28° |
| 2026-05-08 07:11 | 12.19434 | 122.14626 | 11400 ft | 330 kts | 28° |
| 2026-05-08 07:11 | 12.21503 | 122.15674 | 12004 ft | 334 kts | 28° |
| 2026-05-08 07:12 | 12.23597 | 122.16733 | 12612 ft | 338 kts | 28° |
| 2026-05-08 07:12 | 12.25717 | 122.17808 | 13206 ft | 342 kts | 28° |
| 2026-05-08 07:12 | 12.27858 | 122.18895 | 13778 ft | 346 kts | 28° |
| 2026-05-08 07:12 | 12.30022 | 122.19993 | 14297 ft | 349 kts | 28° |
| 2026-05-08 07:13 | 12.32206 | 122.21104 | 14813 ft | 352 kts | 28° |
| 2026-05-08 07:13 | 12.34502 | 122.22020 | 15323 ft | 358 kts | 16° |
| 2026-05-08 07:13 | 12.36987 | 122.22345 | 15822 ft | 365 kts | 2° |
| 2026-05-08 07:13 | 12.39525 | 122.22020 | 16325 ft | 372 kts | 347° |
| 2026-05-08 07:14 | 12.41964 | 122.21061 | 16809 ft | 379 kts | 338° |
| 2026-05-08 07:14 | 12.44373 | 122.19929 | 17297 ft | 382 kts | 338° |
| 2026-05-08 07:14 | 12.46767 | 122.18801 | 17777 ft | 386 kts | 338° |
| 2026-05-08 07:14 | 12.49222 | 122.17641 | 18233 ft | 390 kts | 338° |
| 2026-05-08 07:15 | 12.51700 | 122.16473 | 18663 ft | 393 kts | 338° |
| 2026-05-08 07:15 | 12.54187 | 122.15302 | 19110 ft | 395 kts | 338° |
| 2026-05-08 07:15 | 12.56688 | 122.14126 | 19565 ft | 397 kts | 337° |
| 2026-05-08 07:15 | 12.59208 | 122.12943 | 20027 ft | 399 kts | 337° |
| 2026-05-08 07:16 | 12.61743 | 122.11753 | 20493 ft | 402 kts | 337° |
| 2026-05-08 07:16 | 12.64287 | 122.10561 | 20948 ft | 404 kts | 337° |
| 2026-05-08 07:16 | 12.66853 | 122.09358 | 21397 ft | 406 kts | 337° |
| 2026-05-08 07:16 | 12.69429 | 122.08144 | 21850 ft | 408 kts | 337° |
| 2026-05-08 07:17 | 12.72018 | 122.06922 | 22307 ft | 411 kts | 337° |
| 2026-05-08 07:17 | 12.74619 | 122.05695 | 22764 ft | 413 kts | 336° |
| 2026-05-08 07:17 | 12.77243 | 122.04459 | 23208 ft | 415 kts | 336° |
| 2026-05-08 07:17 | 12.79873 | 122.03221 | 23604 ft | 417 kts | 336° |
| 2026-05-08 07:18 | 12.82518 | 122.01975 | 23958 ft | 420 kts | 336° |
| 2026-05-08 07:18 | 12.85173 | 122.00726 | 24302 ft | 422 kts | 336° |
| 2026-05-08 07:18 | 12.87821 | 121.99481 | 24637 ft | 424 kts | 336° |
| 2026-05-08 07:18 | 12.90510 | 121.98215 | 24970 ft | 426 kts | 336° |
| 2026-05-08 07:19 | 12.93208 | 121.96943 | 25297 ft | 429 kts | 336° |
| 2026-05-08 07:19 | 12.95925 | 121.95662 | 25617 ft | 431 kts | 336° |
| 2026-05-08 07:19 | 12.98658 | 121.94376 | 25932 ft | 433 kts | 336° |
| 2026-05-08 07:19 | 13.01405 | 121.93083 | 26260 ft | 435 kts | 336° |
| 2026-05-08 07:20 | 13.04169 | 121.91781 | 26561 ft | 438 kts | 335° |
| 2026-05-08 07:20 | 13.06940 | 121.90473 | 26868 ft | 440 kts | 335° |
| 2026-05-08 07:20 | 13.09726 | 121.89157 | 27158 ft | 442 kts | 335° |
| 2026-05-08 07:20 | 13.12523 | 121.87835 | 27452 ft | 444 kts | 335° |
| 2026-05-08 07:21 | 13.15332 | 121.86510 | 27739 ft | 446 kts | 335° |
| 2026-05-08 07:21 | 13.18161 | 121.85172 | 28027 ft | 448 kts | 335° |
| 2026-05-08 07:21 | 13.20998 | 121.83832 | 28308 ft | 450 kts | 335° |
| 2026-05-08 07:21 | 13.23858 | 121.82479 | 28590 ft | 452 kts | 335° |
| 2026-05-08 07:22 | 13.26729 | 121.81122 | 28857 ft | 454 kts | 335° |
| 2026-05-08 07:22 | 13.29603 | 121.79762 | 29129 ft | 456 kts | 335° |
| 2026-05-08 07:22 | 13.32492 | 121.78395 | 29403 ft | 458 kts | 335° |
| 2026-05-08 07:22 | 13.35397 | 121.77023 | 29675 ft | 460 kts | 335° |
| 2026-05-08 07:23 | 13.38304 | 121.75652 | 29823 ft | 458 kts | 335° |
| 2026-05-08 07:23 | 13.41148 | 121.74309 | 29845 ft | 442 kts | 335° |
| 2026-05-08 07:23 | 13.46636 | 121.71709 | 29846 ft | 430 kts | 335° |
| 2026-05-08 07:24 | 13.52057 | 121.69137 | 29846 ft | 429 kts | 335° |
| 2026-05-08 07:24 | 13.57443 | 121.66588 | 29846 ft | 429 kts | 335° |
| 2026-05-08 07:25 | 13.62864 | 121.64016 | 29850 ft | 429 kts | 335° |
| 2026-05-08 07:26 | 13.70766 | 121.59740 | 29843 ft | 428 kts | 325° |
| 2026-05-08 07:26 | 13.75646 | 121.56237 | 29842 ft | 428 kts | 325° |
| 2026-05-08 07:27 | 13.80532 | 121.52735 | 29848 ft | 428 kts | 325° |
| 2026-05-08 07:27 | 13.85389 | 121.49258 | 29849 ft | 427 kts | 325° |
| 2026-05-08 07:28 | 13.90261 | 121.45765 | 29852 ft | 426 kts | 325° |
| 2026-05-08 07:28 | 13.95115 | 121.42277 | 29857 ft | 425 kts | 325° |
| 2026-05-08 07:29 | 13.99964 | 121.38797 | 29851 ft | 424 kts | 325° |
| 2026-05-08 07:29 | 14.04802 | 121.35319 | 29846 ft | 424 kts | 325° |
| 2026-05-08 07:30 | 14.09647 | 121.31838 | 29849 ft | 423 kts | 325° |
| 2026-05-08 07:30 | 14.14466 | 121.28373 | 29694 ft | 418 kts | 326° |
| 2026-05-08 07:30 | 14.16796 | 121.26697 | 29434 ft | 409 kts | 326° |
| 2026-05-08 07:31 | 14.19110 | 121.25033 | 29056 ft | 403 kts | 326° |
| 2026-05-08 07:31 | 14.21401 | 121.23384 | 28610 ft | 399 kts | 326° |
| 2026-05-08 07:31 | 14.23666 | 121.21752 | 28168 ft | 395 kts | 326° |
| 2026-05-08 07:31 | 14.25910 | 121.20133 | 27727 ft | 392 kts | 326° |
| 2026-05-08 07:32 | 14.28134 | 121.18525 | 27289 ft | 389 kts | 326° |
| 2026-05-08 07:32 | 14.30346 | 121.16931 | 26838 ft | 387 kts | 326° |
| 2026-05-08 07:32 | 14.32543 | 121.15348 | 26393 ft | 384 kts | 326° |
| 2026-05-08 07:32 | 14.34735 | 121.13769 | 25606 ft | 386 kts | 326° |
| 2026-05-08 07:33 | 14.36983 | 121.12151 | 24063 ft | 403 kts | 327° |
| 2026-05-08 07:33 | 14.39332 | 121.10461 | 22484 ft | 417 kts | 326° |
| 2026-05-08 07:33 | 14.41736 | 121.08728 | 20937 ft | 426 kts | 326° |
| 2026-05-08 07:33 | 14.44188 | 121.06957 | 19388 ft | 434 kts | 326° |
| 2026-05-08 07:34 | 14.46678 | 121.05158 | 17798 ft | 440 kts | 326° |
| 2026-05-08 07:34 | 14.49191 | 121.03338 | 16330 ft | 440 kts | 326° |
| 2026-05-08 07:34 | 14.51677 | 121.01545 | 15119 ft | 433 kts | 327° |
| 2026-05-08 07:34 | 14.54152 | 120.99817 | 14010 ft | 424 kts | 328° |
| 2026-05-08 07:35 | 14.56596 | 120.98165 | 12839 ft | 416 kts | 329° |
| 2026-05-08 07:35 | 14.59006 | 120.96562 | 11662 ft | 408 kts | 329° |
| 2026-05-08 07:35 | 14.61370 | 120.94990 | 10554 ft | 400 kts | 328° |
| 2026-05-08 07:35 | 14.63634 | 120.93475 | 10150 ft | 373 kts | 328° |
| 2026-05-08 07:36 | 14.65727 | 120.92064 | 9934 ft | 349 kts | 328° |
| 2026-05-08 07:36 | 14.67722 | 120.90715 | 9813 ft | 335 kts | 328° |
| 2026-05-08 07:36 | 14.69628 | 120.89424 | 9696 ft | 322 kts | 328° |
| 2026-05-08 07:36 | 14.71462 | 120.88180 | 9569 ft | 309 kts | 328° |
| 2026-05-08 07:37 | 14.72637 | 120.87384 | 9473 ft | 302 kts | 328° |
| 2026-05-08 07:37 | 14.74956 | 120.85814 | 9313 ft | 295 kts | 328° |
| 2026-05-08 07:37 | 14.76087 | 120.85045 | 9230 ft | 293 kts | 329° |
| 2026-05-08 07:37 | 14.77793 | 120.83887 | 9105 ft | 292 kts | 329° |
| 2026-05-08 07:38 | 14.79485 | 120.82737 | 8976 ft | 291 kts | 329° |
| 2026-05-08 07:38 | 14.81177 | 120.81589 | 8852 ft | 291 kts | 329° |
| 2026-05-08 07:38 | 14.82869 | 120.80441 | 8727 ft | 291 kts | 328° |
| 2026-05-08 07:38 | 14.84556 | 120.79295 | 8540 ft | 288 kts | 329° |
| 2026-05-08 07:39 | 14.86220 | 120.78164 | 8167 ft | 285 kts | 328° |
| 2026-05-08 07:39 | 14.87875 | 120.77039 | 7784 ft | 284 kts | 329° |
| 2026-05-08 07:39 | 14.89529 | 120.75916 | 7369 ft | 284 kts | 329° |
| 2026-05-08 07:39 | 14.91172 | 120.74799 | 6964 ft | 283 kts | 329° |
| 2026-05-08 07:40 | 14.92820 | 120.73679 | 6552 ft | 283 kts | 329° |
| 2026-05-08 07:40 | 14.94514 | 120.72632 | 6128 ft | 282 kts | 338° |
| 2026-05-08 07:40 | 14.96362 | 120.72052 | 5979 ft | 277 kts | 353° |
| 2026-05-08 07:40 | 14.98272 | 120.71795 | 5987 ft | 278 kts | 355° |
| 2026-05-08 07:41 | 15.00186 | 120.71539 | 5986 ft | 278 kts | 355° |
| 2026-05-08 07:41 | 15.02105 | 120.71279 | 5982 ft | 278 kts | 354° |
| 2026-05-08 07:41 | 15.04004 | 120.71020 | 5983 ft | 278 kts | 354° |
| 2026-05-08 07:41 | 15.05921 | 120.70758 | 5983 ft | 278 kts | 355° |
| 2026-05-08 07:42 | 15.07839 | 120.70497 | 5980 ft | 279 kts | 354° |
| 2026-05-08 07:42 | 15.09767 | 120.70234 | 5876 ft | 280 kts | 354° |
| 2026-05-08 07:42 | 15.11700 | 120.69972 | 5400 ft | 281 kts | 354° |
| 2026-05-08 07:42 | 15.13643 | 120.69710 | 5045 ft | 279 kts | 355° |
| 2026-05-08 07:43 | 15.15566 | 120.69492 | 4970 ft | 278 kts | 357° |
| 2026-05-08 07:43 | 15.17501 | 120.69325 | 4978 ft | 279 kts | 357° |
| 2026-05-08 07:43 | 15.19437 | 120.69178 | 4980 ft | 279 kts | 358° |
| 2026-05-08 07:43 | 15.21371 | 120.69032 | 4979 ft | 279 kts | 358° |
| 2026-05-08 07:44 | 15.23308 | 120.68970 | 4974 ft | 278 kts | 7° |
| 2026-05-08 07:44 | 15.25187 | 120.69370 | 4663 ft | 276 kts | 22° |
| 2026-05-08 07:44 | 15.26970 | 120.70081 | 4367 ft | 271 kts | 24° |
| 2026-05-08 07:44 | 15.28738 | 120.70791 | 4265 ft | 273 kts | 24° |
| 2026-05-08 07:45 | 15.30513 | 120.71501 | 4147 ft | 272 kts | 23° |
| 2026-05-08 07:45 | 15.32245 | 120.72176 | 4043 ft | 261 kts | 19° |
| 2026-05-08 07:45 | 15.34017 | 120.72290 | 3904 ft | 256 kts | 347° |
| 2026-05-08 07:45 | 15.35560 | 120.71387 | 3845 ft | 261 kts | 313° |
| 2026-05-08 07:46 | 15.36445 | 120.69775 | 3768 ft | 264 kts | 291° |
| 2026-05-08 07:46 | 15.37120 | 120.68005 | 3659 ft | 263 kts | 291° |
| 2026-05-08 07:46 | 15.37546 | 120.66197 | 3554 ft | 254 kts | 266° |
| 2026-05-08 07:46 | 15.37131 | 120.64499 | 3487 ft | 236 kts | 237° |
| 2026-05-08 07:47 | 15.36073 | 120.63269 | 3276 ft | 226 kts | 208° |
| 2026-05-08 07:47 | 15.34674 | 120.62615 | 3086 ft | 219 kts | 195° |
| 2026-05-08 07:47 | 15.33262 | 120.62061 | 2898 ft | 213 kts | 197° |
| 2026-05-08 07:47 | 15.31928 | 120.61531 | 2761 ft | 196 kts | 197° |
| 2026-05-08 07:48 | 15.30697 | 120.61038 | 2565 ft | 182 kts | 196° |
| 2026-05-08 07:48 | 15.29573 | 120.60586 | 2367 ft | 167 kts | 197° |
| 2026-05-08 07:48 | 15.28522 | 120.60165 | 2122 ft | 156 kts | 198° |
| 2026-05-08 07:48 | 15.27525 | 120.59767 | 1754 ft | 154 kts | 197° |
| 2026-05-08 07:49 | 15.26559 | 120.59374 | 1624 ft | 146 kts | 196° |
| 2026-05-08 07:49 | 15.25623 | 120.58987 | 1530 ft | 146 kts | 195° |
| 2026-05-08 07:49 | 15.24669 | 120.58627 | 1407 ft | 144 kts | 195° |
| 2026-05-08 07:49 | 15.23728 | 120.58265 | 1206 ft | 146 kts | 195° |
| 2026-05-08 07:50 | 15.22775 | 120.57903 | 1000 ft | 144 kts | 195° |
| 2026-05-08 07:50 | 15.21838 | 120.57514 | 823 ft | 146 kts | 198° |
| 2026-05-08 07:50 | 15.20888 | 120.57147 | 644 ft | 146 kts | 197° |
| 2026-05-08 07:50 | 15.19944 | 120.56776 | 454 ft | 143 kts | 198° |
| 2026-05-08 07:51 | 15.19114 | 120.56448 | 436 ft | 107 kts | 201° |
| 2026-05-08 07:51 | 15.18585 | 120.56239 | 438 ft | 58 kts | 201° |
| 2026-05-08 07:51 | 15.18262 | 120.56110 | 440 ft | 35 kts | 201° |
| 2026-05-08 07:51 | 15.18148 | 120.56041 | 428 ft | 16 kts | 247° |
| 2026-05-08 07:52 | 15.18162 | 120.55959 | 437 ft | 7 kts | 292° |
| 2026-05-08 07:52 | 15.18180 | 120.55913 | 428 ft | 6 kts | 290° |
| 2026-05-08 07:52 | 15.18194 | 120.55873 | 424 ft | 6 kts | 291° |
| 2026-05-08 07:52 | 15.18208 | 120.55838 | 431 ft | 5 kts | 292° |
| 2026-05-08 07:53 | 15.18221 | 120.55803 | 436 ft | 10 kts | 292° |
| 2026-05-08 07:53 | 15.18263 | 120.55706 | 434 ft | 12 kts | 320° |
| 2026-05-08 07:53 | 15.18337 | 120.55715 | 428 ft | 10 kts | 20° |
| 2026-05-08 07:53 | 15.18398 | 120.55739 | 429 ft | 9 kts | 21° |
| 2026-05-08 07:54 | 15.18449 | 120.55760 | 424 ft | 7 kts | 21° |
| 2026-05-08 07:54 | 15.18520 | 120.55788 | 435 ft | 15 kts | 21° |
| 2026-05-08 07:54 | 15.18624 | 120.55829 | 425 ft | 16 kts | 21° |
| 2026-05-08 07:54 | 15.18735 | 120.55872 | 432 ft | 18 kts | 20° |
| 2026-05-08 07:55 | 15.18856 | 120.55920 | 436 ft | 19 kts | 21° |
| 2026-05-08 07:55 | 15.18987 | 120.55972 | 431 ft | 21 kts | 20° |
| 2026-05-08 07:55 | 15.19124 | 120.55990 | 432 ft | 20 kts | 316° |
| 2026-05-08 07:55 | 15.19228 | 120.55977 | 432 ft | 17 kts | 21° |
| 2026-05-08 07:56 | 15.19347 | 120.56024 | 436 ft | 19 kts | 21° |
| 2026-05-08 07:56 | 15.19462 | 120.56069 | 427 ft | 13 kts | 15° |
| 2026-05-08 07:56 | 15.19534 | 120.56084 | 436 ft | 6 kts | 20° |
| 2026-05-08 07:56 | 15.19567 | 120.56097 | 429 ft | 4 kts | 20° |
| 2026-05-08 07:57 | 15.19577 | 120.56101 | 431 ft | 1 kts | 20° |
| 2026-05-08 07:57 | 15.19578 | 120.56101 | 431 ft | 0 kts | 20° |